South Reno (Wolf Run), Nevada Weather observations

Data are for observation ending at time listed.
 Day   Time    Ave.   Ave.  Ave.  Vector   Max.   Stn.    Total    Solar   Ave.  
  of    of     Air    Rel.  Wind   Wind    Wind   Baro.  Precip.   Rad.    Soil  
Year   Day     Temp.  Hum.  Speed  Dir.    Gust   Pres.                    Temp. 
2016   (PST)    F      %     mph   deg.    mph     mb.     in.     W/m2     F   
------------------------------------------------------------------------------
 206   12:50   90.0     8    4.1   194      9.1  99999.0    0.00    1002    70.6
 206   13:00   90.1     8    3.9   151      8.4  99999.0    0.00     996    70.8
 206   13:10   90.4     8    5.4   145     10.9  99999.0    0.00     988    71.0
 206   13:20   90.9     9    2.6   129      6.8  99999.0    0.00     977    71.3
 206   13:30   91.0     7    4.5   153     12.9  99999.0    0.00     966    71.5
 206   13:40   91.0     8    5.6   147     12.0  99999.0    0.00     949    71.8
 206   13:50   91.8     8    6.2   167     10.4  99999.0    0.00     931    72.0
 206   14:00   91.6     9    4.8   149      9.1  99999.0    0.00     912    72.2
 206   14:10   91.3     8    6.7   211     11.2  99999.0    0.00     894    72.5
 206   14:20   92.1     8    6.7   194     12.2  99999.0    0.00     876    72.7
 206   14:30   91.5     8    6.7   178     12.1  99999.0    0.00     852    72.9
 206   14:40   92.3     8    6.4   160     13.0  99999.0    0.00     832    73.1
 206   14:50   92.5     8    7.4   173     12.0  99999.0    0.00     807    73.2
 206   15:00   92.5     8    7.1   163     12.3  99999.0    0.00     779    73.4
 206   15:10   92.5     8    7.1   180     11.9  99999.0    0.00     753    73.5
 206   15:20   92.3     8    7.7   191     12.0  99999.0    0.00     723    73.7
 206   15:30   92.3     8    7.9   179     11.8  99999.0    0.00     691    73.8
 206   15:40   92.3     9    7.2   188     12.3  99999.0    0.00     659    73.9
 206   15:50   92.8     9    7.0   197     13.2  99999.0    0.00     630    74.0
 206   16:00   91.8     9    7.2   223     12.9  99999.0    0.00     601    74.1
 206   16:10   91.6    10    5.2   232     10.2  99999.0    0.00     573    74.1
 206   16:20   91.3    10    6.5   237     10.2  99999.0    0.00     540    74.2
 206   16:30   91.5     8    5.2   229      8.2  99999.0    0.00     511    74.2
 206   16:40   92.9    10    1.3   247      4.7  99999.0    0.00     477    74.3
 206   16:50   91.1    10    4.7   246     10.0  99999.0    0.00     446    74.3
 206   17:00   91.0    12    1.9   255     10.8  99999.0    0.00     416    74.3
 206   17:10   91.1    11    3.7   245     10.2  99999.0    0.00     386    74.3
 206   17:20   89.4    12    5.1   251     11.2  99999.0    0.00     353    74.3
 206   17:30   89.1    12    4.3   245      9.8  99999.0    0.00     320    74.2
 206   17:40   88.9    12    3.4   253      9.1  99999.0    0.00     287    74.2
 206   17:50   88.5    12    3.1   250     10.9  99999.0    0.00     255    74.2
 206   18:00   87.1    12    4.6   247     11.2  99999.0    0.00     223    74.1
 206   18:10   86.2    13    5.2   248     11.8  99999.0    0.00     113    74.0
 206   18:20   85.2    14    3.0   254      7.7  99999.0    0.00      31    74.0
 206   18:30   84.6    15    1.8   258      6.7  99999.0    0.00      28    73.9
 206   18:40   83.4    15    3.5   254      9.9  99999.0    0.00      25    73.8
 206   18:50   82.5    16    4.2   252     11.0  99999.0    0.00      22    73.7
 206   19:00   81.7    16    4.6   239      7.0  99999.0    0.00      12    73.6
 206   19:10   81.2    16    4.0   233      6.7  99999.0    0.00       9    73.5
 206   19:20   80.5    16    4.1   233      6.2  99999.0    0.00       5    73.4
 206   19:30   79.8    16    3.6   228      6.9  99999.0    0.00       3    73.3
 206   19:40   78.9    18    3.9   251      7.8  99999.0    0.00       1    73.2
 206   19:50   78.5    18    4.6   252      9.6  99999.0    0.00       0    73.1
 206   20:00   78.4    17    4.8   228      9.4  99999.0    0.00       0    73.0
 206   20:10   77.9    17    5.5   225     10.4  99999.0    0.00       0    72.9
 206   20:20   78.0    17    5.7   230      8.3  99999.0    0.00       0    72.8
 206   20:30   77.5    16    5.9   230      9.6  99999.0    0.00       0    72.7
 206   20:40   76.4    15    5.0   247      8.7  99999.0    0.00       0    72.6
 206   20:50   76.6    14    4.8   250      8.7  99999.0    0.00       0    72.5
 206   21:00   74.6    16    3.2   240      7.4  99999.0    0.00       0    72.4
 206   21:10   73.2    16    2.6   246      7.7  99999.0    0.00       0    72.2
 206   21:20   74.5    14    3.8   238      7.3  99999.0    0.00       0    72.1
 206   21:30   74.0    15    3.2   200      6.4  99999.0    0.00       0    72.0
 206   21:40   71.4    17    2.7   247      7.6  99999.0    0.00       0    71.9
 206   21:50   69.8    15    1.9   210      4.2  99999.0    0.00       0    71.8
 206   22:00   67.0    20    3.4   224      6.5  99999.0    0.00       1    71.7
 206   22:10   69.5    19    3.3   224      6.9  99999.0    0.00       1    71.5
 206   22:20   69.1    14    5.8   242      8.3  99999.0    0.00       2    71.3
 206   22:30   70.5    11    4.4   249      7.7  99999.0    0.00       0    71.2
 206   22:40   69.5    11    5.5   241      7.5  99999.0    0.00       0    71.0
 206   22:50   67.5    16    2.8   248      6.4  99999.0    0.00       0    70.9
 206   23:00   66.1    21    1.0   254      4.9  99999.0    0.00       0    70.7
 206   23:10   65.2    23    2.3   241      4.9  99999.0    0.00       0    70.5
 206   23:20   65.1    22    3.1   244      6.2  99999.0    0.00       0    70.4
 206   23:30   66.3    19    4.0   250      7.7  99999.0    0.00       0    70.2
 206   23:40   66.5    17    3.7   248      7.4  99999.0    0.00       0    70.1
 206   23:50   66.3    17    2.7   240      7.4  99999.0    0.00       0    69.9
 207    0:00   64.7    18    3.1   240      6.2  99999.0    0.00       0    69.8
 207    0:10   63.5    16    4.7   236      6.6  99999.0    0.00       0    69.7
 207    0:20   62.4    20    2.4   246      6.0  99999.0    0.00       0    69.5
 207    0:30   61.6    23    1.9   240      5.3  99999.0    0.00       0    69.4
 207    0:40   62.7    22    1.7   242      4.5  99999.0    0.00       0    69.3
 207    0:50   62.0    22    2.2   228      5.3  99999.0    0.00       0    69.2
 207    1:00   60.9    26    2.3   241      6.1  99999.0    0.00       0    69.0
 207    1:10   60.2    23    3.7   233      6.1  99999.0    0.00       0    68.9
 207    1:20   59.9    22    3.0   236      4.8  99999.0    0.00       0    68.8
 207    1:30   60.1    25    2.2   246      5.1  99999.0    0.00       0    68.7
 207    1:40   60.8    25    1.8   231      5.3  99999.0    0.00       0    68.6
 207    1:50   61.4    25    2.5   240      5.0  99999.0    0.00       0    68.5
 207    2:00   60.1    29    2.4   241      5.0  99999.0    0.00       0    68.4
 207    2:10   58.9    38    1.9   248      6.1  99999.0    0.00       1    68.3
 207    2:20   55.0    46    1.4   254      5.8  99999.0    0.00       2    68.2
 207    2:30   55.5    42    2.6   240      4.9  99999.0    0.01       2    68.1
 207    2:40   56.1    36    2.9   237      6.1  99999.0    0.02       2    68.0
 207    2:50   55.1    35    2.6   231      4.6  99999.0    0.00       3    67.9
 207    3:00   55.2    32    2.9   233      4.5  99999.0    0.00       1    67.8
 207    3:10   56.0    29    3.0   235      6.1  99999.0    0.00       1    67.7
 207    3:20   56.5    27    2.9   241      6.2  99999.0    0.00       0    67.6
 207    3:30   57.2    25    3.1   233      5.7  99999.0    0.00       0    67.5
 207    3:40   57.1    25    3.7   239      5.4  99999.0    0.00       0    67.5
 207    3:50   56.7    25    3.6   244      5.9  99999.0    0.00       0    67.4
 207    4:00   57.7    22    3.7   240      5.8  99999.0    0.00       0    67.3
 207    4:10   57.5    22    3.1   246      6.1  99999.0    0.00       0    67.2
 207    4:20   57.1    23    2.8   247      5.2  99999.0    0.00       0    67.1
 207    4:30   57.7    20    3.2   240      6.0  99999.0    0.00       0    67.0
 207    4:40   59.1    17    2.9   231      6.0  99999.0    0.00       0    66.9
 207    4:50   59.3    17    2.1   233      4.7  99999.0    0.00       2    66.8
 207    5:00   58.4    17    1.6   236      4.1  99999.0    0.00       4    66.7
 207    5:10   57.9    17    2.8   242      4.7  99999.0    0.00       9    66.7
 207    5:20   58.5    18    1.7   245      4.2  99999.0    0.00      34    66.6
 207    5:30   59.5    19    0.7   253      3.7  99999.0    0.00      69    66.5
 207    5:40   61.4    21    0.6   251      5.7  99999.0    0.00     103    66.4
 207    5:50   62.0    19    2.0   231      4.5  99999.0    0.00     146    66.3
 207    6:00   64.8    20    0.1   253      1.2  99999.0    0.00     176    66.3
 207    6:10   66.7    20    1.0    33      2.6  99999.0    0.00     206    66.2
 207    6:20   66.1    21    1.7     8      2.8  99999.0    0.00     237    66.1
 207    6:30   66.2    24    1.4   340      2.3  99999.0    0.00     269    66.1
 207    6:40   67.3    24    1.1   334      2.3  99999.0    0.00     302    66.0
 207    6:50   68.5    22    1.5   345      2.6  99999.0    0.00     335    65.9
 207    7:00   69.2    21    1.8    20      3.0  99999.0    0.00     368    65.9
 207    7:10   69.9    20    1.6    46      2.8  99999.0    0.00     402    65.8
 207    7:20   71.0    21    1.0    51      2.3  99999.0    0.00     435    65.8
 207    7:30   72.3    21    0.4    61      1.5  99999.0    0.00     468    65.8
 207    7:40   73.8    19    0.2    18      1.5  99999.0    0.00     497    65.8
 207    7:50   74.4    20    0.8    67      2.3  99999.0    0.00     527    65.7
 207    8:00   74.8    19    0.6    82      2.6  99999.0    0.00     562    65.7
 207    8:10   74.5    18    1.4     7      2.7  99999.0    0.00     592    65.7
 207    8:20   75.3    19    1.2   346      2.6  99999.0    0.00     623    65.7
 207    8:30   77.1    16    0.9    16      2.1  99999.0    0.00     652    65.8
 207    8:40   77.6    14    1.2   357      3.7  99999.0    0.00     676    65.8
 207    8:50   77.3    15    1.8    40      3.4  99999.0    0.00     706    65.8
 207    9:00   78.3    16    1.4    58      4.7  99999.0    0.00     727    65.9
 207    9:10   79.0    15    1.4    46      3.4  99999.0    0.00     755    66.0
 207    9:20   80.0    15    1.6    24      5.4  99999.0    0.00     783    66.1
 207    9:30   80.9    13    1.2    34      4.7  99999.0    0.00     809    66.1
 207    9:40   81.6    13    1.2     9      3.7  99999.0    0.00     838    66.3
 207    9:50   81.8    12    1.2     4      2.8  99999.0    0.00     863    66.4
 207   10:00   83.2    11    2.2    12      3.9  99999.0    0.00     885    66.5
 207   10:10   83.3    10    2.2    20      4.3  99999.0    0.00     905    66.7
 207   10:20   84.2    10    2.1   359      4.7  99999.0    0.00     919    66.8
 207   10:30   84.5     9    2.5     1      4.9  99999.0    0.00     936    66.9
 207   10:40   84.6     8    2.3    32      4.5  99999.0    0.00     952    67.1
 207   10:50   86.2     8    2.1   351      4.2  99999.0    0.00     967    67.3
 207   11:00   85.9     8    2.3   335      5.3  99999.0    0.00     978    67.5
 207   11:10   86.6    10    1.4   360      4.6  99999.0    0.00     988    67.7
 207   11:20   87.2     8    2.2   356      4.3  99999.0    0.00     997    67.9
 207   11:30   87.4     8    1.7   349      4.7  99999.0    0.00     999    68.1
 207   11:40   87.9     8    2.7   356      6.3  99999.0    0.00    1003    68.3
 207   11:50   88.7     8    2.7     9      6.3  99999.0    0.00    1009    68.5
 207   12:00   88.9     8    2.6    20      6.3  99999.0    0.00     979    68.7
 207   12:10   89.7     8    2.8    10      6.3  99999.0    0.00    1002    69.0
 207   12:20   89.9     8    4.5    17      7.7  99999.0    0.00    1002    69.2
 207   12:30   90.0     7    4.6    22      9.6  99999.0    0.00    1007    69.5
 207   12:40   90.7     7    3.5   344      6.6  99999.0    0.00     999    69.7

Return to South Reno, Nevada graphs page.


Western Regional Climate Center,wrcc@dri.edu